Main page
METAR-TAF:

METAR-TAF

Airports :

A Coruña Airport

A Coruña, Spain

latitude: 43-18N, longitude: 008-23W, elevation: 97 m

Current weather observation

The report was made 32 minutes ago, at 03:00 UTC
Calm wind
Temperature 8°C
Humidity 100%
Pressure 1030 hPa
Visibility 10 km or more
Broken clouds at a height of 2600 ft

METAR: LECO 210300Z AUTO 00000KT 9999 BKN026 08/08 Q1030

Time: 04:32 (03:32 UTC)

Forecast

The report was made 1 hour and 32 minutes ago, at 02:00 UTC
Forecast valid from 21 at 03 UTC to 22 at 03 UTC
Wind 9 kt from the North
Visibility 10 km or more
Scattered clouds at a height of 1500 ft
Broken clouds at a height of 3000 ft
Probability 40% :
Temporary
from 21 at 04 UTC to 21 at 10 UTC
Visibility: 0350 m
at a height of 100 ft
fog

TAF: LECO 210200Z 2103/2203 01009KT 9999 SCT015 BKN030 TX15/2114Z TN05/2106Z PROB40 TEMPO 2104/2110 0350 FG VV001

Weather observations and forecasts of more than 4000 airports (METAR and TAF reports).

The available stations are represented by yellow and red dots on the map.

Hover mouse over dot to see the name of the station.

Then click to see weather observations and forecasts.

To change the map : click on the green buttons with a black cross to zoom in, on the green button with a dash to zoom out, or on the green arrows for adjacent maps.


METAR-TAF: